Du har inga inställningar för hoppväder.nu

Hoppväder.nu

Senast uppdaterat 02:17

UTC-tid

2018-01-17 kl. 01:17


Sol och måne

Solen går upp 8:38 och går ner 15:42 (beräknade cirkatider)
Nästa fullmåne blir om 14 dagar (2018-01-31)

METAR

ESOE (Örebro)
(27 minuter sedan)
ESOE 170050Z AUTO 08006KT 1200 R01/P2000N R19/P2000N BR VV002 01/01 Q0984=



ESOK (Karlstad)
(27 minuter sedan)
ESOK 170050Z AUTO 12004KT 2000 -RASN OVC001/// 00/00 Q0982=



ESGR (Skövde)
(27 minuter sedan)
ESGR 170050Z AUTO 14004KT 090V170 9999 -RA ///026 01/M02 Q0982=



ESSD (Borlänge)
(27 minuter sedan)
ESSD 170050Z AUTO 12010KT 4500 BR OVC005/// M01/M01 Q0985=



ESOW (Västerås)
(27 minuter sedan)
ESOW 170050Z AUTO 12015KT 5000 SG FEW006/// SCT008/// BKN010/// 00/M01 Q0986=



TAF

ESOE (Örebro)
(52 minuter sedan)
ESOE AAB 170025Z 1700/1701 10005KT 9999 SCT003 BKN015 PROB40 1700/1701 2500 BR BKN003=



ESOK (Karlstad)
(287 minuter sedan)
ESOK 162030Z 1621/1623 15010KT 9999 -RA BKN007 TEMPO 1621/1623 2500 -SNRA BKN004=



ESGR (Skövde)
ESGR



ESSD (Borlänge)
(317 minuter sedan)
ESSD 162000Z NIL=



ESOW (Västerås)
(317 minuter sedan)
ESOW 162000Z NIL=





Kodnycklar till TAF och METAR






LHP

(Örebro är område G2a i Södra delen)

Prognos är inte uppdaterad




Spotting

Hur fungerar spotthjälpen och Vindkartan?

Markvind är ca 0 m/s.



Vindkartan

Senast uppdaterad 02:17



All data kommer från LFV.se